sensor_id;sensor_type;location;lat;lon;timestamp;pressure;altitude;pressure_sealevel;temperature;humidity
6144;BME280;3103;49.492;8.474;2024-03-22T00:00:47;101254.69;;;13.58;65.56
6144;BME280;3103;49.492;8.474;2024-03-22T00:03:13;101252.06;;;13.63;65.46
6144;BME280;3103;49.492;8.474;2024-03-22T00:05:39;101247.25;;;13.65;66.17
6144;BME280;3103;49.492;8.474;2024-03-22T00:08:05;101252.16;;;13.80;65.09
6144;BME280;3103;49.492;8.474;2024-03-22T00:10:31;101248.94;;;13.94;64.52
6144;BME280;3103;49.492;8.474;2024-03-22T00:12:57;101248.19;;;13.71;66.07
6144;BME280;3103;49.492;8.474;2024-03-22T00:15:23;101239.44;;;13.52;67.01
6144;BME280;3103;49.492;8.474;2024-03-22T00:17:49;101234.34;;;13.27;67.02
6144;BME280;3103;49.492;8.474;2024-03-22T00:20:14;101240.91;;;13.19;67.23
6144;BME280;3103;49.492;8.474;2024-03-22T00:22:40;101233.72;;;13.36;66.31
6144;BME280;3103;49.492;8.474;2024-03-22T00:25:07;101243.56;;;13.54;66.01
6144;BME280;3103;49.492;8.474;2024-03-22T00:27:33;101237.94;;;13.44;66.30
6144;BME280;3103;49.492;8.474;2024-03-22T00:29:59;101229.03;;;13.08;66.87
6144;BME280;3103;49.492;8.474;2024-03-22T00:32:25;101224.03;;;12.89;68.22
6144;BME280;3103;49.492;8.474;2024-03-22T00:34:51;101212.66;;;12.75;68.81
6144;BME280;3103;49.492;8.474;2024-03-22T00:37:17;101217.22;;;12.98;68.39
6144;BME280;3103;49.492;8.474;2024-03-22T00:39:42;101216.16;;;13.11;69.23
6144;BME280;3103;49.492;8.474;2024-03-22T00:42:08;101206.78;;;13.25;68.53
6144;BME280;3103;49.492;8.474;2024-03-22T00:44:34;101207.00;;;13.12;67.75
6144;BME280;3103;49.492;8.474;2024-03-22T00:47:00;101197.38;;;13.16;68.08
6144;BME280;3103;49.492;8.474;2024-03-22T00:49:29;101196.00;;;13.01;68.25
6144;BME280;3103;49.492;8.474;2024-03-22T00:51:55;101189.41;;;13.09;67.88
6144;BME280;3103;49.492;8.474;2024-03-22T00:54:22;101192.00;;;12.92;68.75
6144;BME280;3103;49.492;8.474;2024-03-22T00:56:48;101182.16;;;13.10;68.90
6144;BME280;3103;49.492;8.474;2024-03-22T00:59:14;101183.88;;;13.16;67.95
6144;BME280;3103;49.492;8.474;2024-03-22T01:01:39;101171.00;;;13.06;67.83
6144;BME280;3103;49.492;8.474;2024-03-22T01:04:05;101170.56;;;12.74;69.09
6144;BME280;3103;49.492;8.474;2024-03-22T01:06:31;101165.66;;;12.83;69.23
6144;BME280;3103;49.492;8.474;2024-03-22T01:08:57;101164.09;;;12.98;68.53
6144;BME280;3103;49.492;8.474;2024-03-22T01:11:23;101170.00;;;12.72;69.29
6144;BME280;3103;49.492;8.474;2024-03-22T01:13:49;101168.59;;;12.58;69.97
6144;BME280;3103;49.492;8.474;2024-03-22T01:16:15;101174.81;;;12.82;69.04
6144;BME280;3103;49.492;8.474;2024-03-22T01:18:40;101165.41;;;12.49;70.58
6144;BME280;3103;49.492;8.474;2024-03-22T01:21:06;101156.28;;;12.27;72.09
6144;BME280;3103;49.492;8.474;2024-03-22T01:23:32;101161.56;;;12.45;72.74
6144;BME280;3103;49.492;8.474;2024-03-22T01:25:58;101161.78;;;12.32;72.43
6144;BME280;3103;49.492;8.474;2024-03-22T01:28:24;101160.84;;;12.49;72.38
6144;BME280;3103;49.492;8.474;2024-03-22T01:30:50;101152.03;;;12.66;72.52
6144;BME280;3103;49.492;8.474;2024-03-22T01:33:16;101157.44;;;12.66;72.24
6144;BME280;3103;49.492;8.474;2024-03-22T01:35:42;101149.47;;;12.71;71.77
6144;BME280;3103;49.492;8.474;2024-03-22T01:38:08;101143.03;;;12.72;72.02
6144;BME280;3103;49.492;8.474;2024-03-22T01:40:33;101144.44;;;12.74;72.20
6144;BME280;3103;49.492;8.474;2024-03-22T01:43:00;101142.47;;;12.46;71.68
6144;BME280;3103;49.492;8.474;2024-03-22T01:45:26;101145.50;;;12.62;71.24
6144;BME280;3103;49.492;8.474;2024-03-22T01:47:52;101143.28;;;12.59;71.49
6144;BME280;3103;49.492;8.474;2024-03-22T01:50:22;101147.03;;;12.58;70.84
6144;BME280;3103;49.492;8.474;2024-03-22T01:52:48;101141.25;;;12.77;71.17
6144;BME280;3103;49.492;8.474;2024-03-22T01:55:15;101142.19;;;12.83;71.16
6144;BME280;3103;49.492;8.474;2024-03-22T01:57:41;101137.63;;;12.72;71.77
6144;BME280;3103;49.492;8.474;2024-03-22T02:00:12;101141.16;;;12.61;72.97
6144;BME280;3103;49.492;8.474;2024-03-22T02:02:40;101139.75;;;12.58;73.42
6144;BME280;3103;49.492;8.474;2024-03-22T02:05:16;101139.88;;;12.63;72.74
6144;BME280;3103;49.492;8.474;2024-03-22T02:07:45;101131.19;;;12.61;72.38
6144;BME280;3103;49.492;8.474;2024-03-22T02:10:12;101139.59;;;12.88;71.65
6144;BME280;3103;49.492;8.474;2024-03-22T02:12:39;101137.16;;;12.75;72.16
6144;BME280;3103;49.492;8.474;2024-03-22T02:15:07;101130.72;;;12.76;72.05
6144;BME280;3103;49.492;8.474;2024-03-22T02:17:35;101131.34;;;12.55;72.46
6144;BME280;3103;49.492;8.474;2024-03-22T02:20:02;101133.66;;;12.63;72.50
6144;BME280;3103;49.492;8.474;2024-03-22T02:22:31;101130.72;;;12.76;71.87
6144;BME280;3103;49.492;8.474;2024-03-22T02:24:57;101125.69;;;12.68;72.84
6144;BME280;3103;49.492;8.474;2024-03-22T02:27:24;101129.56;;;12.60;73.21
6144;BME280;3103;49.492;8.474;2024-03-22T02:29:50;101127.00;;;12.42;73.36
6144;BME280;3103;49.492;8.474;2024-03-22T02:32:16;101124.41;;;12.35;73.47
6144;BME280;3103;49.492;8.474;2024-03-22T02:34:42;101123.25;;;12.31;73.43
6144;BME280;3103;49.492;8.474;2024-03-22T02:37:08;101119.38;;;12.27;74.20
6144;BME280;3103;49.492;8.474;2024-03-22T02:39:34;101121.69;;;12.24;74.37
6144;BME280;3103;49.492;8.474;2024-03-22T02:41:59;101121.03;;;12.28;74.61
6144;BME280;3103;49.492;8.474;2024-03-22T02:44:25;101118.56;;;12.27;74.00
6144;BME280;3103;49.492;8.474;2024-03-22T02:46:51;101117.28;;;12.29;73.76
6144;BME280;3103;49.492;8.474;2024-03-22T02:49:17;101114.09;;;12.21;74.36
6144;BME280;3103;49.492;8.474;2024-03-22T02:51:43;101103.53;;;12.07;75.43
6144;BME280;3103;49.492;8.474;2024-03-22T02:54:09;101095.81;;;11.99;75.31
6144;BME280;3103;49.492;8.474;2024-03-22T02:56:34;101098.28;;;12.01;75.64
6144;BME280;3103;49.492;8.474;2024-03-22T02:59:00;101090.06;;;11.96;75.93
6144;BME280;3103;49.492;8.474;2024-03-22T03:01:26;101081.06;;;12.02;75.89
6144;BME280;3103;49.492;8.474;2024-03-22T03:03:52;101079.91;;;11.98;76.12
6144;BME280;3103;49.492;8.474;2024-03-22T03:06:18;101077.66;;;11.95;76.56
6144;BME280;3103;49.492;8.474;2024-03-22T03:08:45;101078.34;;;11.90;76.08
6144;BME280;3103;49.492;8.474;2024-03-22T03:11:13;101073.22;;;11.88;76.45
6144;BME280;3103;49.492;8.474;2024-03-22T03:13:40;101069.34;;;11.84;76.42
6144;BME280;3103;49.492;8.474;2024-03-22T03:16:05;101076.59;;;11.84;76.41
6144;BME280;3103;49.492;8.474;2024-03-22T03:18:32;101064.97;;;11.72;76.94
6144;BME280;3103;49.492;8.474;2024-03-22T03:20:57;101070.03;;;11.80;77.14
6144;BME280;3103;49.492;8.474;2024-03-22T03:23:23;101079.53;;;11.82;76.22
6144;BME280;3103;49.492;8.474;2024-03-22T03:25:49;101066.41;;;11.86;77.10
6144;BME280;3103;49.492;8.474;2024-03-22T03:28:16;101082.00;;;11.84;76.79
6144;BME280;3103;49.492;8.474;2024-03-22T03:30:42;101079.25;;;11.72;76.80
6144;BME280;3103;49.492;8.474;2024-03-22T03:33:08;101068.59;;;11.77;76.54
6144;BME280;3103;49.492;8.474;2024-03-22T03:35:33;101066.38;;;11.74;76.11
6144;BME280;3103;49.492;8.474;2024-03-22T03:38:00;101072.53;;;11.63;77.34
6144;BME280;3103;49.492;8.474;2024-03-22T03:40:26;101066.56;;;11.61;77.66
6144;BME280;3103;49.492;8.474;2024-03-22T03:42:53;101063.31;;;11.71;77.55
6144;BME280;3103;49.492;8.474;2024-03-22T03:45:19;101068.94;;;11.69;77.27
6144;BME280;3103;49.492;8.474;2024-03-22T03:47:45;101064.38;;;11.70;76.74
6144;BME280;3103;49.492;8.474;2024-03-22T03:50:11;101065.44;;;11.80;75.66
6144;BME280;3103;49.492;8.474;2024-03-22T03:52:38;101065.91;;;11.77;76.20
6144;BME280;3103;49.492;8.474;2024-03-22T03:55:04;101056.88;;;11.72;75.88
6144;BME280;3103;49.492;8.474;2024-03-22T03:57:30;101059.09;;;11.75;76.55
6144;BME280;3103;49.492;8.474;2024-03-22T03:59:56;101053.66;;;11.93;76.47
6144;BME280;3103;49.492;8.474;2024-03-22T04:02:21;101053.66;;;12.05;74.85
6144;BME280;3103;49.492;8.474;2024-03-22T04:04:47;101059.75;;;11.88;74.84
6144;BME280;3103;49.492;8.474;2024-03-22T04:07:13;101058.06;;;11.76;75.49
6144;BME280;3103;49.492;8.474;2024-03-22T04:09:39;101047.59;;;11.68;75.89
6144;BME280;3103;49.492;8.474;2024-03-22T04:12:05;101049.97;;;11.76;76.13
6144;BME280;3103;49.492;8.474;2024-03-22T04:14:31;101049.75;;;11.77;75.98
6144;BME280;3103;49.492;8.474;2024-03-22T04:16:57;101050.50;;;11.84;76.48
6144;BME280;3103;49.492;8.474;2024-03-22T04:19:23;101044.06;;;11.85;76.21
6144;BME280;3103;49.492;8.474;2024-03-22T04:21:49;101050.34;;;11.79;75.69
6144;BME280;3103;49.492;8.474;2024-03-22T04:24:15;101044.97;;;11.79;75.87
6144;BME280;3103;49.492;8.474;2024-03-22T04:26:41;101046.97;;;11.96;74.33
6144;BME280;3103;49.492;8.474;2024-03-22T04:29:07;101048.03;;;11.83;75.18
6144;BME280;3103;49.492;8.474;2024-03-22T04:31:33;101035.59;;;11.82;74.98
6144;BME280;3103;49.492;8.474;2024-03-22T04:33:59;101049.09;;;11.94;74.99
6144;BME280;3103;49.492;8.474;2024-03-22T04:36:24;101040.19;;;11.93;74.96
6144;BME280;3103;49.492;8.474;2024-03-22T04:38:50;101044.53;;;11.82;75.11
6144;BME280;3103;49.492;8.474;2024-03-22T04:41:16;101037.28;;;11.83;74.55
6144;BME280;3103;49.492;8.474;2024-03-22T04:43:42;101041.22;;;11.80;74.03
6144;BME280;3103;49.492;8.474;2024-03-22T04:46:08;101038.16;;;11.77;74.89
6144;BME280;3103;49.492;8.474;2024-03-22T04:48:34;101040.41;;;11.92;74.62
6144;BME280;3103;49.492;8.474;2024-03-22T04:51:00;101041.56;;;11.72;73.87
6144;BME280;3103;49.492;8.474;2024-03-22T04:53:26;101034.97;;;11.68;74.40
6144;BME280;3103;49.492;8.474;2024-03-22T04:55:52;101035.91;;;11.62;75.14
6144;BME280;3103;49.492;8.474;2024-03-22T04:58:22;101034.50;;;11.59;75.63
6144;BME280;3103;49.492;8.474;2024-03-22T05:00:49;101031.25;;;11.69;75.65
6144;BME280;3103;49.492;8.474;2024-03-22T05:03:15;101035.22;;;11.78;75.49
6144;BME280;3103;49.492;8.474;2024-03-22T05:05:42;101033.28;;;11.85;74.35
6144;BME280;3103;49.492;8.474;2024-03-22T05:08:09;101030.13;;;11.88;74.97
6144;BME280;3103;49.492;8.474;2024-03-22T05:10:35;101031.22;;;11.57;75.15
6144;BME280;3103;49.492;8.474;2024-03-22T05:13:01;101021.75;;;11.55;75.04
6144;BME280;3103;49.492;8.474;2024-03-22T05:15:27;101020.47;;;11.57;75.46
6144;BME280;3103;49.492;8.474;2024-03-22T05:17:57;101026.44;;;11.59;75.84
6144;BME280;3103;49.492;8.474;2024-03-22T05:20:23;101021.88;;;11.60;76.07
6144;BME280;3103;49.492;8.474;2024-03-22T05:22:49;101034.97;;;11.56;75.62
6144;BME280;3103;49.492;8.474;2024-03-22T05:25:15;101028.78;;;11.56;76.48
6144;BME280;3103;49.492;8.474;2024-03-22T05:27:42;101031.25;;;11.69;76.54
6144;BME280;3103;49.492;8.474;2024-03-22T05:30:09;101034.94;;;11.86;76.28
6144;BME280;3103;49.492;8.474;2024-03-22T05:32:35;101029.16;;;11.71;75.77
6144;BME280;3103;49.492;8.474;2024-03-22T05:35:01;101025.69;;;11.82;76.08
6144;BME280;3103;49.492;8.474;2024-03-22T05:37:27;101031.72;;;11.78;76.12
6144;BME280;3103;49.492;8.474;2024-03-22T05:39:54;101033.75;;;11.82;75.66
6144;BME280;3103;49.492;8.474;2024-03-22T05:42:23;101032.53;;;11.78;75.38
6144;BME280;3103;49.492;8.474;2024-03-22T05:44:50;101023.72;;;11.48;76.05
6144;BME280;3103;49.492;8.474;2024-03-22T05:47:16;101033.59;;;11.24;77.75
6144;BME280;3103;49.492;8.474;2024-03-22T05:49:44;101025.94;;;11.51;77.03
6144;BME280;3103;49.492;8.474;2024-03-22T05:52:10;101020.53;;;11.39;77.42
6144;BME280;3103;49.492;8.474;2024-03-22T05:54:35;101025.13;;;11.50;77.66
6144;BME280;3103;49.492;8.474;2024-03-22T05:57:02;101019.19;;;11.60;77.23
6144;BME280;3103;49.492;8.474;2024-03-22T05:59:28;101015.50;;;11.31;77.29
6144;BME280;3103;49.492;8.474;2024-03-22T06:01:53;101019.38;;;11.47;77.75
6144;BME280;3103;49.492;8.474;2024-03-22T06:04:19;101013.44;;;11.68;77.97
6144;BME280;3103;49.492;8.474;2024-03-22T06:06:45;101020.31;;;11.82;76.84
6144;BME280;3103;49.492;8.474;2024-03-22T06:09:11;101016.28;;;11.73;76.76
6144;BME280;3103;49.492;8.474;2024-03-22T06:11:38;101017.56;;;11.71;77.07
6144;BME280;3103;49.492;8.474;2024-03-22T06:14:05;101015.75;;;11.53;77.35
6144;BME280;3103;49.492;8.474;2024-03-22T06:16:31;101011.91;;;11.49;77.98
6144;BME280;3103;49.492;8.474;2024-03-22T06:18:57;101010.59;;;11.40;78.22
6144;BME280;3103;49.492;8.474;2024-03-22T06:21:22;101004.28;;;11.46;78.18
6144;BME280;3103;49.492;8.474;2024-03-22T06:23:51;101005.00;;;11.53;78.22
6144;BME280;3103;49.492;8.474;2024-03-22T06:26:17;100998.38;;;11.14;79.57
6144;BME280;3103;49.492;8.474;2024-03-22T06:28:44;100998.06;;;11.34;79.97
6144;BME280;3103;49.492;8.474;2024-03-22T06:31:10;100997.56;;;11.25;79.69
6144;BME280;3103;49.492;8.474;2024-03-22T06:33:36;100995.50;;;11.39;79.73
6144;BME280;3103;49.492;8.474;2024-03-22T06:36:02;100990.75;;;11.64;80.05
6144;BME280;3103;49.492;8.474;2024-03-22T06:38:29;100990.50;;;11.77;78.91
6144;BME280;3103;49.492;8.474;2024-03-22T06:40:55;100996.66;;;11.84;77.77
6144;BME280;3103;49.492;8.474;2024-03-22T06:43:21;100991.13;;;11.91;77.03
6144;BME280;3103;49.492;8.474;2024-03-22T06:45:46;100989.16;;;11.86;77.33
6144;BME280;3103;49.492;8.474;2024-03-22T06:48:13;100988.69;;;11.89;78.69
6144;BME280;3103;49.492;8.474;2024-03-22T06:50:41;100992.19;;;12.02;78.18
6144;BME280;3103;49.492;8.474;2024-03-22T06:53:07;100991.94;;;12.15;77.29
6144;BME280;3103;49.492;8.474;2024-03-22T06:55:33;100984.94;;;12.14;76.79
6144;BME280;3103;49.492;8.474;2024-03-22T06:57:59;100972.50;;;12.13;76.72
6144;BME280;3103;49.492;8.474;2024-03-22T07:00:24;100984.41;;;12.40;76.28
6144;BME280;3103;49.492;8.474;2024-03-22T07:02:50;100973.69;;;12.57;75.44
6144;BME280;3103;49.492;8.474;2024-03-22T07:05:16;100966.31;;;12.53;74.76
6144;BME280;3103;49.492;8.474;2024-03-22T07:07:42;100965.13;;;12.60;76.52
6144;BME280;3103;49.492;8.474;2024-03-22T07:10:08;100966.84;;;12.66;75.07
6144;BME280;3103;49.492;8.474;2024-03-22T07:12:34;100956.59;;;12.80;74.90
6144;BME280;3103;49.492;8.474;2024-03-22T07:15:01;100957.63;;;13.07;73.84
6144;BME280;3103;49.492;8.474;2024-03-22T07:17:31;100963.94;;;12.96;73.19
6144;BME280;3103;49.492;8.474;2024-03-22T07:19:57;100961.53;;;12.83;73.84
6144;BME280;3103;49.492;8.474;2024-03-22T07:22:23;100959.94;;;12.99;73.58
6144;BME280;3103;49.492;8.474;2024-03-22T07:24:49;100963.47;;;13.16;73.21
6144;BME280;3103;49.492;8.474;2024-03-22T07:27:17;100956.94;;;13.12;72.44
6144;BME280;3103;49.492;8.474;2024-03-22T07:29:46;100958.59;;;13.30;72.13
6144;BME280;3103;49.492;8.474;2024-03-22T07:32:12;100953.78;;;13.32;72.12
6144;BME280;3103;49.492;8.474;2024-03-22T07:34:38;100946.09;;;13.24;71.82
6144;BME280;3103;49.492;8.474;2024-03-22T07:37:04;100953.31;;;13.06;72.48
6144;BME280;3103;49.492;8.474;2024-03-22T07:39:30;100947.69;;;12.79;73.30
6144;BME280;3103;49.492;8.474;2024-03-22T07:41:56;100949.00;;;12.77;74.44
6144;BME280;3103;49.492;8.474;2024-03-22T07:44:22;100944.94;;;12.91;73.74
6144;BME280;3103;49.492;8.474;2024-03-22T07:46:50;100936.53;;;13.04;73.16
6144;BME280;3103;49.492;8.474;2024-03-22T07:49:17;100942.34;;;13.42;72.57
6144;BME280;3103;49.492;8.474;2024-03-22T07:51:42;100948.19;;;13.22;71.77
6144;BME280;3103;49.492;8.474;2024-03-22T07:54:08;100939.31;;;13.38;72.42
6144;BME280;3103;49.492;8.474;2024-03-22T07:56:34;100946.09;;;13.57;71.47
6144;BME280;3103;49.492;8.474;2024-03-22T07:59:00;100945.34;;;13.45;71.50
6144;BME280;3103;49.492;8.474;2024-03-22T08:01:26;100935.13;;;13.47;71.27
6144;BME280;3103;49.492;8.474;2024-03-22T08:03:53;100940.44;;;13.42;71.43
6144;BME280;3103;49.492;8.474;2024-03-22T08:06:19;100927.53;;;13.44;71.48
6144;BME280;3103;49.492;8.474;2024-03-22T08:08:45;100932.16;;;13.49;72.18
6144;BME280;3103;49.492;8.474;2024-03-22T08:11:11;100938.88;;;13.46;71.86
6144;BME280;3103;49.492;8.474;2024-03-22T08:13:37;100938.06;;;13.62;71.72
6144;BME280;3103;49.492;8.474;2024-03-22T08:16:03;100940.19;;;13.60;71.63
6144;BME280;3103;49.492;8.474;2024-03-22T08:18:29;100931.44;;;13.20;72.21
6144;BME280;3103;49.492;8.474;2024-03-22T08:20:55;100936.63;;;13.38;72.36
6144;BME280;3103;49.492;8.474;2024-03-22T08:23:20;100932.53;;;13.52;72.28
6144;BME280;3103;49.492;8.474;2024-03-22T08:25:48;100927.25;;;13.62;72.56
6144;BME280;3103;49.492;8.474;2024-03-22T08:28:14;100919.06;;;13.74;72.27
6144;BME280;3103;49.492;8.474;2024-03-22T08:30:41;100923.09;;;13.55;72.55
6144;BME280;3103;49.492;8.474;2024-03-22T08:33:08;100913.53;;;13.47;73.10
6144;BME280;3103;49.492;8.474;2024-03-22T08:35:34;100908.31;;;13.24;74.31
6144;BME280;3103;49.492;8.474;2024-03-22T08:38:00;100914.72;;;13.73;72.46
6144;BME280;3103;49.492;8.474;2024-03-22T08:40:26;100911.25;;;13.78;71.78
6144;BME280;3103;49.492;8.474;2024-03-22T08:42:53;100912.00;;;13.51;73.33
6144;BME280;3103;49.492;8.474;2024-03-22T08:45:19;100903.88;;;13.51;73.56
6144;BME280;3103;49.492;8.474;2024-03-22T08:47:45;100905.34;;;13.59;74.18
6144;BME280;3103;49.492;8.474;2024-03-22T08:50:13;100899.44;;;13.62;73.25
6144;BME280;3103;49.492;8.474;2024-03-22T08:52:40;100903.38;;;13.54;73.35
6144;BME280;3103;49.492;8.474;2024-03-22T08:55:06;100901.88;;;13.80;73.84
6144;BME280;3103;49.492;8.474;2024-03-22T08:57:35;100892.81;;;13.70;73.88
6144;BME280;3103;49.492;8.474;2024-03-22T09:00:01;100898.84;;;13.77;73.61
6144;BME280;3103;49.492;8.474;2024-03-22T09:02:29;100885.66;;;13.80;73.89
6144;BME280;3103;49.492;8.474;2024-03-22T09:04:55;100884.84;;;14.02;73.68
6144;BME280;3103;49.492;8.474;2024-03-22T09:07:21;100885.28;;;14.15;73.09
6144;BME280;3103;49.492;8.474;2024-03-22T09:09:47;100883.97;;;14.18;72.64
6144;BME280;3103;49.492;8.474;2024-03-22T09:12:13;100882.41;;;14.22;72.62
6144;BME280;3103;49.492;8.474;2024-03-22T09:14:39;100876.56;;;14.08;72.96
6144;BME280;3103;49.492;8.474;2024-03-22T09:17:04;100867.81;;;14.01;73.46
6144;BME280;3103;49.492;8.474;2024-03-22T09:19:30;100874.84;;;14.02;73.49
6144;BME280;3103;49.492;8.474;2024-03-22T09:21:57;100875.44;;;14.04;73.14
6144;BME280;3103;49.492;8.474;2024-03-22T09:24:23;100876.06;;;14.11;73.25
6144;BME280;3103;49.492;8.474;2024-03-22T09:26:49;100864.84;;;14.46;72.42
6144;BME280;3103;49.492;8.474;2024-03-22T09:29:14;100869.38;;;14.41;71.86
6144;BME280;3103;49.492;8.474;2024-03-22T09:31:40;100869.81;;;14.54;71.50
6144;BME280;3103;49.492;8.474;2024-03-22T09:34:06;100865.81;;;14.62;71.35
6144;BME280;3103;49.492;8.474;2024-03-22T09:36:32;100860.50;;;14.72;70.84
6144;BME280;3103;49.492;8.474;2024-03-22T09:39:01;100852.78;;;14.54;71.63
6144;BME280;3103;49.492;8.474;2024-03-22T09:41:31;100855.22;;;14.55;72.18
6144;BME280;3103;49.492;8.474;2024-03-22T09:43:58;100854.09;;;14.78;71.41
6144;BME280;3103;49.492;8.474;2024-03-22T09:46:27;100851.44;;;14.83;72.04
6144;BME280;3103;49.492;8.474;2024-03-22T09:48:54;100850.91;;;14.87;71.17
6144;BME280;3103;49.492;8.474;2024-03-22T09:51:20;100848.97;;;15.14;70.62
6144;BME280;3103;49.492;8.474;2024-03-22T09:53:51;100844.44;;;15.25;69.92
6144;BME280;3103;49.492;8.474;2024-03-22T09:56:20;100838.56;;;15.38;69.27
6144;BME280;3103;49.492;8.474;2024-03-22T09:58:47;100840.03;;;15.56;68.27
6144;BME280;3103;49.492;8.474;2024-03-22T10:01:14;100833.91;;;15.70;66.77
6144;BME280;3103;49.492;8.474;2024-03-22T10:03:40;100829.56;;;15.64;67.56
6144;BME280;3103;49.492;8.474;2024-03-22T10:06:06;100826.59;;;15.76;66.81
6144;BME280;3103;49.492;8.474;2024-03-22T10:08:32;100814.75;;;15.87;66.65
6144;BME280;3103;49.492;8.474;2024-03-22T10:11:01;100825.63;;;16.02;65.08
6144;BME280;3103;49.492;8.474;2024-03-22T10:13:29;100825.13;;;16.06;64.91
6144;BME280;3103;49.492;8.474;2024-03-22T10:15:56;100821.03;;;16.03;64.85
6144;BME280;3103;49.492;8.474;2024-03-22T10:18:22;100818.84;;;15.95;64.99
6144;BME280;3103;49.492;8.474;2024-03-22T10:21:02;100812.56;;;15.79;65.90
6144;BME280;3103;49.492;8.474;2024-03-22T10:23:29;100811.75;;;15.89;67.27
6144;BME280;3103;49.492;8.474;2024-03-22T10:25:59;100800.63;;;15.80;66.31
6144;BME280;3103;49.492;8.474;2024-03-22T10:28:25;100789.59;;;15.97;66.31
6144;BME280;3103;49.492;8.474;2024-03-22T10:30:52;100792.06;;;16.14;66.25
6144;BME280;3103;49.492;8.474;2024-03-22T10:33:20;100793.16;;;16.13;65.72
6144;BME280;3103;49.492;8.474;2024-03-22T10:35:51;100789.66;;;16.22;65.19
6144;BME280;3103;49.492;8.474;2024-03-22T10:38:21;100784.72;;;16.04;65.30
6144;BME280;3103;49.492;8.474;2024-03-22T10:40:48;100779.06;;;16.11;65.19
6144;BME280;3103;49.492;8.474;2024-03-22T10:43:15;100765.69;;;15.84;65.67
6144;BME280;3103;49.492;8.474;2024-03-22T10:45:42;100776.31;;;15.95;66.95
6144;BME280;3103;49.492;8.474;2024-03-22T10:48:12;100768.22;;;16.11;65.22
6144;BME280;3103;49.492;8.474;2024-03-22T10:50:41;100764.97;;;16.29;64.62
6144;BME280;3103;49.492;8.474;2024-03-22T10:53:18;100764.72;;;16.25;64.44
6144;BME280;3103;49.492;8.474;2024-03-22T10:55:47;100757.94;;;16.33;64.79
6144;BME280;3103;49.492;8.474;2024-03-22T10:58:21;100757.38;;;16.31;63.72
6144;BME280;3103;49.492;8.474;2024-03-22T11:00:47;100754.13;;;16.29;64.28
6144;BME280;3103;49.492;8.474;2024-03-22T11:03:13;100753.59;;;16.42;65.39
6144;BME280;3103;49.492;8.474;2024-03-22T11:05:49;100735.72;;;16.41;63.16
6144;BME280;3103;49.492;8.474;2024-03-22T11:08:29;100732.97;;;16.46;64.01
6144;BME280;3103;49.492;8.474;2024-03-22T11:10:57;100733.53;;;16.58;62.58
6144;BME280;3103;49.492;8.474;2024-03-22T11:13:23;100731.13;;;16.72;62.97
6144;BME280;3103;49.492;8.474;2024-03-22T11:15:50;100719.19;;;16.78;61.29
6144;BME280;3103;49.492;8.474;2024-03-22T11:18:17;100716.19;;;16.65;61.50
6144;BME280;3103;49.492;8.474;2024-03-22T11:20:44;100718.34;;;16.73;60.69
6144;BME280;3103;49.492;8.474;2024-03-22T11:23:14;100706.44;;;16.69;62.21
6144;BME280;3103;49.492;8.474;2024-03-22T11:25:41;100702.91;;;16.78;61.28
6144;BME280;3103;49.492;8.474;2024-03-22T11:28:07;100697.97;;;17.06;61.25
6144;BME280;3103;49.492;8.474;2024-03-22T11:30:33;100696.56;;;17.13;59.31
6144;BME280;3103;49.492;8.474;2024-03-22T11:33:03;100688.44;;;17.08;56.55
6144;BME280;3103;49.492;8.474;2024-03-22T11:35:29;100682.19;;;17.03;59.10
6144;BME280;3103;49.492;8.474;2024-03-22T11:37:55;100676.19;;;17.21;57.00
6144;BME280;3103;49.492;8.474;2024-03-22T11:40:26;100676.09;;;17.46;56.90
6144;BME280;3103;49.492;8.474;2024-03-22T11:42:54;100670.44;;;17.33;55.29
6144;BME280;3103;49.492;8.474;2024-03-22T11:45:22;100668.13;;;17.60;54.61
6144;BME280;3103;49.492;8.474;2024-03-22T11:47:48;100661.81;;;17.20;54.55
6144;BME280;3103;49.492;8.474;2024-03-22T11:50:15;100660.47;;;17.13;54.34
6144;BME280;3103;49.492;8.474;2024-03-22T11:52:42;100651.16;;;17.34;56.27
6144;BME280;3103;49.492;8.474;2024-03-22T11:55:13;100655.97;;;17.47;55.54
6144;BME280;3103;49.492;8.474;2024-03-22T11:57:39;100659.38;;;17.73;54.15
6144;BME280;3103;49.492;8.474;2024-03-22T12:00:05;100654.69;;;17.84;53.64
6144;BME280;3103;49.492;8.474;2024-03-22T12:02:41;100647.72;;;18.07;53.96
6144;BME280;3103;49.492;8.474;2024-03-22T12:05:09;100647.56;;;17.93;51.04
6144;BME280;3103;49.492;8.474;2024-03-22T12:07:37;100633.13;;;17.98;52.02
6144;BME280;3103;49.492;8.474;2024-03-22T12:10:04;100624.34;;;18.06;53.23
6144;BME280;3103;49.492;8.474;2024-03-22T12:12:31;100624.03;;;18.13;54.17
6144;BME280;3103;49.492;8.474;2024-03-22T12:14:57;100617.31;;;18.05;51.48
6144;BME280;3103;49.492;8.474;2024-03-22T12:17:23;100623.03;;;18.32;54.67
6144;BME280;3103;49.492;8.474;2024-03-22T12:19:49;100610.56;;;18.26;52.43
6144;BME280;3103;49.492;8.474;2024-03-22T12:22:15;100619.81;;;17.96;50.52
6144;BME280;3103;49.492;8.474;2024-03-22T12:24:41;100603.22;;;17.98;51.34
6144;BME280;3103;49.492;8.474;2024-03-22T12:27:07;100599.63;;;17.68;53.10
6144;BME280;3103;49.492;8.474;2024-03-22T12:29:34;100599.88;;;17.72;51.48
6144;BME280;3103;49.492;8.474;2024-03-22T12:32:02;100597.44;;;17.70;51.49
6144;BME280;3103;49.492;8.474;2024-03-22T12:34:30;100590.63;;;17.73;51.79
6144;BME280;3103;49.492;8.474;2024-03-22T12:36:57;100587.38;;;17.71;51.78
6144;BME280;3103;49.492;8.474;2024-03-22T12:39:23;100590.25;;;17.90;53.82
6144;BME280;3103;49.492;8.474;2024-03-22T12:41:49;100590.78;;;17.92;52.21
6144;BME280;3103;49.492;8.474;2024-03-22T12:44:15;100583.00;;;18.09;53.36
6144;BME280;3103;49.492;8.474;2024-03-22T12:46:41;100583.94;;;17.94;51.07
6144;BME280;3103;49.492;8.474;2024-03-22T12:49:11;100574.13;;;17.98;51.50
6144;BME280;3103;49.492;8.474;2024-03-22T12:51:37;100576.91;;;18.22;52.02
6144;BME280;3103;49.492;8.474;2024-03-22T12:54:04;100578.47;;;17.99;51.20
6144;BME280;3103;49.492;8.474;2024-03-22T12:56:30;100573.50;;;18.35;52.23
6144;BME280;3103;49.492;8.474;2024-03-22T12:58:56;100565.72;;;18.24;51.15
6144;BME280;3103;49.492;8.474;2024-03-22T13:01:22;100559.78;;;18.22;50.31
6144;BME280;3103;49.492;8.474;2024-03-22T13:03:48;100559.75;;;18.51;52.57
6144;BME280;3103;49.492;8.474;2024-03-22T13:06:14;100554.09;;;18.18;50.30